Rosa, Louisiana
Current Conditions -  °F | °C
As of 8:35 PM on Sunday 21 Dec 2014 (Local Time) from KOPL Reporting Station
Haze Haze  
Wind Chill: 49°   Ceiling: 400
Heat Index: 49°   Visibility: 5mi
Dew Point: 48°   Wind: 0mph
Humidity: 97%   Direction: NA
Pressure: 29.95"   Gusts: NA
Location:  30.7315°N, 91.9765°W
Report Text: KOPL 220235Z AUTO 00000KT 5SM BR OVC004 10/09 A2995 RMK AO2 T00950091
Loading
Personal Weather Stations






























Interactive Weather Map New forecast layout! Learn more

10-Day Weather Forecast

Advertisements
Track Severe Weather on mobile